sensor_id;sensor_type;location;lat;lon;timestamp;P1;durP1;ratioP1;P2;durP2;ratioP2
52126;SDS011;38120;53.176;6.614;2022-08-19T00:00:20;9.13;;;6.40;;
52126;SDS011;38120;53.176;6.614;2022-08-19T00:02:46;11.55;;;6.82;;
52126;SDS011;38120;53.176;6.614;2022-08-19T00:05:12;9.63;;;6.78;;
52126;SDS011;38120;53.176;6.614;2022-08-19T00:07:40;10.60;;;6.68;;
52126;SDS011;38120;53.176;6.614;2022-08-19T00:10:08;9.40;;;6.80;;
52126;SDS011;38120;53.176;6.614;2022-08-19T00:12:37;10.95;;;7.60;;
52126;SDS011;38120;53.176;6.614;2022-08-19T00:15:04;10.00;;;7.40;;
52126;SDS011;38120;53.176;6.614;2022-08-19T00:17:32;11.10;;;7.63;;
52126;SDS011;38120;53.176;6.614;2022-08-19T00:19:57;10.23;;;8.35;;
52126;SDS011;38120;53.176;6.614;2022-08-19T00:22:23;10.80;;;7.32;;
52126;SDS011;38120;53.176;6.614;2022-08-19T00:24:49;10.60;;;7.47;;
52126;SDS011;38120;53.176;6.614;2022-08-19T00:27:14;11.65;;;8.02;;
52126;SDS011;38120;53.176;6.614;2022-08-19T00:32:07;10.18;;;7.70;;
52126;SDS011;38120;53.176;6.614;2022-08-19T00:34:32;9.80;;;7.65;;
52126;SDS011;38120;53.176;6.614;2022-08-19T00:36:58;10.77;;;7.47;;
52126;SDS011;38120;53.176;6.614;2022-08-19T00:39:24;11.02;;;7.43;;
52126;SDS011;38120;53.176;6.614;2022-08-19T00:41:51;10.25;;;7.15;;
52126;SDS011;38120;53.176;6.614;2022-08-19T00:44:21;12.10;;;7.35;;
52126;SDS011;38120;53.176;6.614;2022-08-19T00:46:49;8.90;;;6.53;;
52126;SDS011;38120;53.176;6.614;2022-08-19T00:49:24;9.05;;;6.57;;
52126;SDS011;38120;53.176;6.614;2022-08-19T00:52:11;8.55;;;6.30;;
52126;SDS011;38120;53.176;6.614;2022-08-19T00:54:39;8.20;;;6.40;;
52126;SDS011;38120;53.176;6.614;2022-08-19T00:57:07;10.55;;;7.30;;
52126;SDS011;38120;53.176;6.614;2022-08-19T00:59:38;9.77;;;6.60;;
52126;SDS011;38120;53.176;6.614;2022-08-19T01:02:06;12.40;;;6.80;;
52126;SDS011;38120;53.176;6.614;2022-08-19T01:04:32;11.30;;;7.72;;
52126;SDS011;38120;53.176;6.614;2022-08-19T01:06:58;10.85;;;7.35;;
52126;SDS011;38120;53.176;6.614;2022-08-19T01:09:24;11.27;;;7.35;;
52126;SDS011;38120;53.176;6.614;2022-08-19T01:11:50;11.05;;;7.03;;
52126;SDS011;38120;53.176;6.614;2022-08-19T01:16:42;11.40;;;7.03;;
52126;SDS011;38120;53.176;6.614;2022-08-19T01:19:12;7.93;;;6.15;;
52126;SDS011;38120;53.176;6.614;2022-08-19T01:21:46;8.77;;;6.75;;
52126;SDS011;38120;53.176;6.614;2022-08-19T01:24:20;7.82;;;6.40;;
52126;SDS011;38120;53.176;6.614;2022-08-19T01:26:46;8.93;;;6.57;;
52126;SDS011;38120;53.176;6.614;2022-08-19T01:31:39;8.02;;;5.65;;
52126;SDS011;38120;53.176;6.614;2022-08-19T01:34:05;9.48;;;6.60;;
52126;SDS011;38120;53.176;6.614;2022-08-19T01:36:33;12.63;;;6.38;;
52126;SDS011;38120;53.176;6.614;2022-08-19T01:39:03;10.77;;;7.15;;
52126;SDS011;38120;53.176;6.614;2022-08-19T01:41:31;8.70;;;6.72;;
52126;SDS011;38120;53.176;6.614;2022-08-19T01:43:57;10.25;;;7.30;;
52126;SDS011;38120;53.176;6.614;2022-08-19T01:46:23;9.27;;;7.38;;
52126;SDS011;38120;53.176;6.614;2022-08-19T01:48:49;10.43;;;7.18;;
52126;SDS011;38120;53.176;6.614;2022-08-19T01:51:15;8.30;;;7.15;;
52126;SDS011;38120;53.176;6.614;2022-08-19T01:53:41;11.27;;;6.85;;
52126;SDS011;38120;53.176;6.614;2022-08-19T01:56:07;9.75;;;6.40;;
52126;SDS011;38120;53.176;6.614;2022-08-19T01:58:40;10.32;;;7.43;;
52126;SDS011;38120;53.176;6.614;2022-08-19T02:01:10;10.75;;;7.50;;
52126;SDS011;38120;53.176;6.614;2022-08-19T02:03:35;9.13;;;7.20;;
52126;SDS011;38120;53.176;6.614;2022-08-19T02:06:02;13.45;;;8.27;;
52126;SDS011;38120;53.176;6.614;2022-08-19T02:08:29;10.18;;;7.60;;
52126;SDS011;38120;53.176;6.614;2022-08-19T02:10:55;12.02;;;9.10;;
52126;SDS011;38120;53.176;6.614;2022-08-19T02:13:22;15.23;;;8.85;;
52126;SDS011;38120;53.176;6.614;2022-08-19T02:15:48;12.25;;;8.40;;
52126;SDS011;38120;53.176;6.614;2022-08-19T02:18:14;12.02;;;9.32;;
52126;SDS011;38120;53.176;6.614;2022-08-19T02:20:40;11.05;;;9.05;;
52126;SDS011;38120;53.176;6.614;2022-08-19T02:23:08;14.45;;;9.52;;
52126;SDS011;38120;53.176;6.614;2022-08-19T02:25:34;12.10;;;8.20;;
52126;SDS011;38120;53.176;6.614;2022-08-19T02:28:00;11.48;;;8.80;;
52126;SDS011;38120;53.176;6.614;2022-08-19T02:30:26;13.57;;;9.77;;
52126;SDS011;38120;53.176;6.614;2022-08-19T02:32:52;15.13;;;8.82;;
52126;SDS011;38120;53.176;6.614;2022-08-19T02:35:18;10.35;;;8.32;;
52126;SDS011;38120;53.176;6.614;2022-08-19T02:37:44;12.73;;;9.73;;
52126;SDS011;38120;53.176;6.614;2022-08-19T02:40:29;12.27;;;8.60;;
52126;SDS011;38120;53.176;6.614;2022-08-19T02:42:57;10.82;;;8.68;;
52126;SDS011;38120;53.176;6.614;2022-08-19T02:45:22;12.10;;;8.55;;
52126;SDS011;38120;53.176;6.614;2022-08-19T02:47:48;14.95;;;10.15;;
52126;SDS011;38120;53.176;6.614;2022-08-19T02:50:14;13.00;;;9.10;;
52126;SDS011;38120;53.176;6.614;2022-08-19T02:52:39;14.25;;;10.82;;
52126;SDS011;38120;53.176;6.614;2022-08-19T02:55:06;12.30;;;9.52;;
52126;SDS011;38120;53.176;6.614;2022-08-19T02:57:32;11.05;;;9.13;;
52126;SDS011;38120;53.176;6.614;2022-08-19T02:59:58;10.35;;;8.93;;
52126;SDS011;38120;53.176;6.614;2022-08-19T03:02:24;11.52;;;9.05;;
52126;SDS011;38120;53.176;6.614;2022-08-19T03:04:50;11.88;;;9.07;;
52126;SDS011;38120;53.176;6.614;2022-08-19T03:07:16;11.30;;;8.18;;
52126;SDS011;38120;53.176;6.614;2022-08-19T03:09:43;11.63;;;7.95;;
52126;SDS011;38120;53.176;6.614;2022-08-19T03:12:09;11.25;;;9.20;;
52126;SDS011;38120;53.176;6.614;2022-08-19T03:14:36;9.88;;;7.90;;
52126;SDS011;38120;53.176;6.614;2022-08-19T03:17:02;11.52;;;8.20;;
52126;SDS011;38120;53.176;6.614;2022-08-19T03:19:29;13.73;;;9.35;;
52126;SDS011;38120;53.176;6.614;2022-08-19T03:21:56;9.93;;;7.38;;
52126;SDS011;38120;53.176;6.614;2022-08-19T03:24:23;10.85;;;8.20;;
52126;SDS011;38120;53.176;6.614;2022-08-19T03:26:50;10.35;;;7.03;;
52126;SDS011;38120;53.176;6.614;2022-08-19T03:29:19;12.65;;;7.63;;
52126;SDS011;38120;53.176;6.614;2022-08-19T03:31:45;12.25;;;8.18;;
52126;SDS011;38120;53.176;6.614;2022-08-19T03:34:12;12.88;;;8.35;;
52126;SDS011;38120;53.176;6.614;2022-08-19T03:36:40;10.32;;;7.80;;
52126;SDS011;38120;53.176;6.614;2022-08-19T03:39:06;13.10;;;8.30;;
52126;SDS011;38120;53.176;6.614;2022-08-19T03:41:36;13.27;;;9.35;;
52126;SDS011;38120;53.176;6.614;2022-08-19T03:44:03;12.45;;;9.10;;
52126;SDS011;38120;53.176;6.614;2022-08-19T03:46:30;12.32;;;8.38;;
52126;SDS011;38120;53.176;6.614;2022-08-19T03:48:58;12.25;;;9.23;;
52126;SDS011;38120;53.176;6.614;2022-08-19T03:51:30;11.85;;;9.00;;
52126;SDS011;38120;53.176;6.614;2022-08-19T03:54:01;11.05;;;8.52;;
52126;SDS011;38120;53.176;6.614;2022-08-19T03:56:28;13.48;;;9.35;;
52126;SDS011;38120;53.176;6.614;2022-08-19T03:58:55;11.05;;;8.73;;
52126;SDS011;38120;53.176;6.614;2022-08-19T04:01:22;12.02;;;9.15;;
52126;SDS011;38120;53.176;6.614;2022-08-19T04:03:51;12.27;;;8.60;;
52126;SDS011;38120;53.176;6.614;2022-08-19T04:06:22;11.57;;;8.77;;
52126;SDS011;38120;53.176;6.614;2022-08-19T04:08:51;12.43;;;9.77;;
52126;SDS011;38120;53.176;6.614;2022-08-19T04:11:22;11.15;;;8.98;;
52126;SDS011;38120;53.176;6.614;2022-08-19T04:13:50;12.52;;;8.30;;
52126;SDS011;38120;53.176;6.614;2022-08-19T04:16:18;12.02;;;7.93;;
52126;SDS011;38120;53.176;6.614;2022-08-19T04:18:48;10.52;;;9.00;;
52126;SDS011;38120;53.176;6.614;2022-08-19T04:21:17;12.05;;;9.00;;
52126;SDS011;38120;53.176;6.614;2022-08-19T04:23:45;12.73;;;9.98;;
52126;SDS011;38120;53.176;6.614;2022-08-19T04:26:16;13.57;;;8.88;;
52126;SDS011;38120;53.176;6.614;2022-08-19T04:28:47;11.45;;;8.98;;
52126;SDS011;38120;53.176;6.614;2022-08-19T04:31:14;13.45;;;9.23;;
52126;SDS011;38120;53.176;6.614;2022-08-19T04:33:42;10.77;;;8.55;;
52126;SDS011;38120;53.176;6.614;2022-08-19T04:36:15;14.88;;;10.60;;
52126;SDS011;38120;53.176;6.614;2022-08-19T04:38:49;15.45;;;12.25;;
52126;SDS011;38120;53.176;6.614;2022-08-19T04:41:18;15.10;;;11.77;;
52126;SDS011;38120;53.176;6.614;2022-08-19T04:44:03;15.27;;;11.52;;
52126;SDS011;38120;53.176;6.614;2022-08-19T04:46:29;15.75;;;12.60;;
52126;SDS011;38120;53.176;6.614;2022-08-19T04:48:57;16.52;;;11.98;;
52126;SDS011;38120;53.176;6.614;2022-08-19T04:51:24;16.23;;;11.80;;
52126;SDS011;38120;53.176;6.614;2022-08-19T04:53:50;15.27;;;11.18;;
52126;SDS011;38120;53.176;6.614;2022-08-19T04:56:17;16.05;;;11.70;;
52126;SDS011;38120;53.176;6.614;2022-08-19T04:58:45;19.75;;;12.60;;
52126;SDS011;38120;53.176;6.614;2022-08-19T05:01:20;14.13;;;10.38;;
52126;SDS011;38120;53.176;6.614;2022-08-19T05:03:50;15.95;;;10.85;;
52126;SDS011;38120;53.176;6.614;2022-08-19T05:06:17;15.40;;;11.35;;
52126;SDS011;38120;53.176;6.614;2022-08-19T05:08:45;15.90;;;11.10;;
52126;SDS011;38120;53.176;6.614;2022-08-19T05:11:13;15.82;;;11.60;;
52126;SDS011;38120;53.176;6.614;2022-08-19T05:13:42;14.90;;;10.32;;
52126;SDS011;38120;53.176;6.614;2022-08-19T05:16:09;15.55;;;12.23;;
52126;SDS011;38120;53.176;6.614;2022-08-19T05:18:36;15.02;;;11.57;;
52126;SDS011;38120;53.176;6.614;2022-08-19T05:21:22;16.02;;;12.90;;
52126;SDS011;38120;53.176;6.614;2022-08-19T05:24:07;16.58;;;12.02;;
52126;SDS011;38120;53.176;6.614;2022-08-19T05:26:39;14.30;;;11.98;;
52126;SDS011;38120;53.176;6.614;2022-08-19T05:29:07;17.08;;;13.13;;
52126;SDS011;38120;53.176;6.614;2022-08-19T05:31:34;15.43;;;12.65;;
52126;SDS011;38120;53.176;6.614;2022-08-19T05:34:01;16.38;;;12.43;;
52126;SDS011;38120;53.176;6.614;2022-08-19T05:36:28;18.33;;;12.82;;
52126;SDS011;38120;53.176;6.614;2022-08-19T05:38:59;18.17;;;13.88;;
52126;SDS011;38120;53.176;6.614;2022-08-19T05:41:25;21.85;;;14.90;;
52126;SDS011;38120;53.176;6.614;2022-08-19T05:43:55;28.23;;;15.57;;
52126;SDS011;38120;53.176;6.614;2022-08-19T05:46:26;17.50;;;13.18;;
52126;SDS011;38120;53.176;6.614;2022-08-19T05:48:52;19.30;;;14.23;;
52126;SDS011;38120;53.176;6.614;2022-08-19T05:51:21;20.75;;;14.38;;
52126;SDS011;38120;53.176;6.614;2022-08-19T05:53:48;20.48;;;14.02;;
52126;SDS011;38120;53.176;6.614;2022-08-19T05:56:15;18.50;;;13.85;;
52126;SDS011;38120;53.176;6.614;2022-08-19T05:58:42;19.90;;;14.55;;
52126;SDS011;38120;53.176;6.614;2022-08-19T06:01:11;17.17;;;14.05;;
52126;SDS011;38120;53.176;6.614;2022-08-19T06:03:39;19.05;;;14.25;;
52126;SDS011;38120;53.176;6.614;2022-08-19T06:06:06;17.30;;;12.98;;
52126;SDS011;38120;53.176;6.614;2022-08-19T06:08:33;17.73;;;12.68;;
52126;SDS011;38120;53.176;6.614;2022-08-19T06:13:57;17.58;;;12.43;;
52126;SDS011;38120;53.176;6.614;2022-08-19T06:16:26;19.08;;;12.10;;
52126;SDS011;38120;53.176;6.614;2022-08-19T06:21:20;13.55;;;10.85;;
52126;SDS011;38120;53.176;6.614;2022-08-19T06:23:47;15.77;;;11.45;;
52126;SDS011;38120;53.176;6.614;2022-08-19T06:26:14;16.98;;;11.68;;
52126;SDS011;38120;53.176;6.614;2022-08-19T06:28:41;16.13;;;11.30;;
52126;SDS011;38120;53.176;6.614;2022-08-19T06:31:10;14.82;;;10.88;;
52126;SDS011;38120;53.176;6.614;2022-08-19T06:36:02;15.07;;;10.98;;
52126;SDS011;38120;53.176;6.614;2022-08-19T06:38:29;15.85;;;10.73;;
52126;SDS011;38120;53.176;6.614;2022-08-19T06:41:02;18.00;;;10.98;;
52126;SDS011;38120;53.176;6.614;2022-08-19T06:43:28;16.02;;;10.27;;
52126;SDS011;38120;53.176;6.614;2022-08-19T06:45:54;16.23;;;11.52;;
52126;SDS011;38120;53.176;6.614;2022-08-19T06:48:20;16.38;;;10.68;;
52126;SDS011;38120;53.176;6.614;2022-08-19T06:50:46;13.85;;;10.70;;
52126;SDS011;38120;53.176;6.614;2022-08-19T06:53:14;15.98;;;10.70;;
52126;SDS011;38120;53.176;6.614;2022-08-19T06:55:40;15.15;;;9.73;;
52126;SDS011;38120;53.176;6.614;2022-08-19T06:58:06;14.50;;;10.20;;
52126;SDS011;38120;53.176;6.614;2022-08-19T07:00:32;15.70;;;9.82;;
52126;SDS011;38120;53.176;6.614;2022-08-19T07:02:58;14.13;;;10.73;;
52126;SDS011;38120;53.176;6.614;2022-08-19T07:05:25;14.57;;;10.35;;
52126;SDS011;38120;53.176;6.614;2022-08-19T07:07:51;12.93;;;10.05;;
52126;SDS011;38120;53.176;6.614;2022-08-19T07:10:17;14.60;;;10.20;;
52126;SDS011;38120;53.176;6.614;2022-08-19T07:12:44;14.32;;;9.52;;
52126;SDS011;38120;53.176;6.614;2022-08-19T07:15:10;12.60;;;9.35;;
52126;SDS011;38120;53.176;6.614;2022-08-19T07:17:37;12.05;;;7.85;;
52126;SDS011;38120;53.176;6.614;2022-08-19T07:20:04;13.68;;;9.00;;
52126;SDS011;38120;53.176;6.614;2022-08-19T07:22:34;14.25;;;8.80;;
52126;SDS011;38120;53.176;6.614;2022-08-19T07:25:01;10.40;;;8.52;;
52126;SDS011;38120;53.176;6.614;2022-08-19T07:27:28;16.13;;;10.18;;
52126;SDS011;38120;53.176;6.614;2022-08-19T07:29:54;11.75;;;8.95;;
52126;SDS011;38120;53.176;6.614;2022-08-19T07:32:20;11.50;;;8.40;;
52126;SDS011;38120;53.176;6.614;2022-08-19T07:34:46;12.63;;;9.35;;
52126;SDS011;38120;53.176;6.614;2022-08-19T07:37:11;13.55;;;9.23;;
52126;SDS011;38120;53.176;6.614;2022-08-19T07:39:37;14.68;;;9.40;;
52126;SDS011;38120;53.176;6.614;2022-08-19T07:42:06;15.18;;;9.10;;
52126;SDS011;38120;53.176;6.614;2022-08-19T07:44:34;12.90;;;8.35;;
52126;SDS011;38120;53.176;6.614;2022-08-19T07:47:00;12.13;;;8.82;;
52126;SDS011;38120;53.176;6.614;2022-08-19T07:49:26;14.25;;;9.13;;
52126;SDS011;38120;53.176;6.614;2022-08-19T07:54:21;12.02;;;8.80;;
52126;SDS011;38120;53.176;6.614;2022-08-19T07:56:48;13.15;;;7.97;;
52126;SDS011;38120;53.176;6.614;2022-08-19T07:59:16;13.02;;;7.93;;
52126;SDS011;38120;53.176;6.614;2022-08-19T08:01:43;11.07;;;7.97;;
52126;SDS011;38120;53.176;6.614;2022-08-19T08:04:09;10.23;;;8.27;;
52126;SDS011;38120;53.176;6.614;2022-08-19T08:06:54;11.75;;;8.00;;
52126;SDS011;38120;53.176;6.614;2022-08-19T08:09:40;12.77;;;7.43;;
52126;SDS011;38120;53.176;6.614;2022-08-19T08:12:16;11.55;;;8.45;;
52126;SDS011;38120;53.176;6.614;2022-08-19T08:14:48;11.98;;;8.07;;
52126;SDS011;38120;53.176;6.614;2022-08-19T08:17:16;10.43;;;7.65;;
52126;SDS011;38120;53.176;6.614;2022-08-19T08:19:44;12.45;;;7.97;;
52126;SDS011;38120;53.176;6.614;2022-08-19T08:22:11;11.23;;;7.88;;
52126;SDS011;38120;53.176;6.614;2022-08-19T08:25:06;11.23;;;7.93;;
52126;SDS011;38120;53.176;6.614;2022-08-19T08:27:41;8.68;;;7.00;;
52126;SDS011;38120;53.176;6.614;2022-08-19T08:30:13;8.50;;;6.95;;
52126;SDS011;38120;53.176;6.614;2022-08-19T08:32:42;9.07;;;5.53;;
52126;SDS011;38120;53.176;6.614;2022-08-19T08:35:10;9.27;;;6.57;;
52126;SDS011;38120;53.176;6.614;2022-08-19T08:37:38;8.55;;;6.72;;
52126;SDS011;38120;53.176;6.614;2022-08-19T08:40:05;9.48;;;7.13;;
52126;SDS011;38120;53.176;6.614;2022-08-19T08:42:43;10.30;;;7.28;;
52126;SDS011;38120;53.176;6.614;2022-08-19T08:45:30;10.63;;;7.30;;
52126;SDS011;38120;53.176;6.614;2022-08-19T08:48:01;11.32;;;7.97;;
52126;SDS011;38120;53.176;6.614;2022-08-19T08:50:37;9.27;;;7.13;;
52126;SDS011;38120;53.176;6.614;2022-08-19T08:53:10;11.30;;;7.18;;
52126;SDS011;38120;53.176;6.614;2022-08-19T08:55:40;8.88;;;6.95;;
52126;SDS011;38120;53.176;6.614;2022-08-19T08:58:09;9.55;;;6.30;;
52126;SDS011;38120;53.176;6.614;2022-08-19T09:00:43;9.55;;;6.97;;
52126;SDS011;38120;53.176;6.614;2022-08-19T09:03:21;8.82;;;5.75;;
52126;SDS011;38120;53.176;6.614;2022-08-19T09:05:57;14.23;;;7.97;;
52126;SDS011;38120;53.176;6.614;2022-08-19T09:11:03;7.95;;;5.93;;
52126;SDS011;38120;53.176;6.614;2022-08-19T09:16:19;15.02;;;8.05;;
52126;SDS011;38120;53.176;6.614;2022-08-19T09:18:53;9.07;;;6.95;;
52126;SDS011;38120;53.176;6.614;2022-08-19T09:21:22;10.48;;;8.55;;
52126;SDS011;38120;53.176;6.614;2022-08-19T09:23:50;12.60;;;8.10;;
52126;SDS011;38120;53.176;6.614;2022-08-19T09:26:18;11.60;;;7.72;;
52126;SDS011;38120;53.176;6.614;2022-08-19T09:28:49;10.20;;;6.57;;
52126;SDS011;38120;53.176;6.614;2022-08-19T09:31:18;8.55;;;6.28;;
52126;SDS011;38120;53.176;6.614;2022-08-19T09:33:46;7.95;;;6.53;;
52126;SDS011;38120;53.176;6.614;2022-08-19T09:36:19;9.20;;;7.35;;
52126;SDS011;38120;53.176;6.614;2022-08-19T09:38:47;9.82;;;6.88;;
52126;SDS011;38120;53.176;6.614;2022-08-19T09:41:18;12.68;;;8.00;;
52126;SDS011;38120;53.176;6.614;2022-08-19T09:43:46;11.43;;;7.75;;
52126;SDS011;38120;53.176;6.614;2022-08-19T09:46:14;13.15;;;8.32;;
52126;SDS011;38120;53.176;6.614;2022-08-19T09:48:41;10.52;;;7.68;;
52126;SDS011;38120;53.176;6.614;2022-08-19T09:51:13;12.15;;;6.97;;
52126;SDS011;38120;53.176;6.614;2022-08-19T09:53:41;11.00;;;7.28;;
52126;SDS011;38120;53.176;6.614;2022-08-19T09:56:08;11.73;;;7.90;;
52126;SDS011;38120;53.176;6.614;2022-08-19T09:58:35;9.35;;;7.38;;
52126;SDS011;38120;53.176;6.614;2022-08-19T10:01:02;12.70;;;9.10;;
52126;SDS011;38120;53.176;6.614;2022-08-19T10:03:29;11.82;;;8.40;;
52126;SDS011;38120;53.176;6.614;2022-08-19T10:05:56;10.32;;;8.65;;
52126;SDS011;38120;53.176;6.614;2022-08-19T10:08:25;11.52;;;9.55;;
52126;SDS011;38120;53.176;6.614;2022-08-19T10:10:55;15.15;;;9.57;;
52126;SDS011;38120;53.176;6.614;2022-08-19T10:13:23;15.10;;;9.15;;
52126;SDS011;38120;53.176;6.614;2022-08-19T10:15:54;12.43;;;8.02;;
52126;SDS011;38120;53.176;6.614;2022-08-19T10:18:22;11.63;;;8.23;;
52126;SDS011;38120;53.176;6.614;2022-08-19T10:20:49;11.80;;;8.35;;
52126;SDS011;38120;53.176;6.614;2022-08-19T10:23:18;10.73;;;7.57;;
52126;SDS011;38120;53.176;6.614;2022-08-19T10:25:45;11.90;;;8.27;;
52126;SDS011;38120;53.176;6.614;2022-08-19T10:28:11;11.48;;;9.43;;
52126;SDS011;38120;53.176;6.614;2022-08-19T10:30:40;12.02;;;7.70;;
52126;SDS011;38120;53.176;6.614;2022-08-19T10:33:06;13.38;;;7.43;;
52126;SDS011;38120;53.176;6.614;2022-08-19T10:37:58;15.40;;;9.73;;
52126;SDS011;38120;53.176;6.614;2022-08-19T10:40:25;10.85;;;8.35;;
52126;SDS011;38120;53.176;6.614;2022-08-19T10:42:52;13.48;;;9.07;;
52126;SDS011;38120;53.176;6.614;2022-08-19T10:45:19;12.63;;;9.00;;
52126;SDS011;38120;53.176;6.614;2022-08-19T10:47:48;12.18;;;9.02;;
52126;SDS011;38120;53.176;6.614;2022-08-19T10:53:02;9.77;;;7.90;;
52126;SDS011;38120;53.176;6.614;2022-08-19T10:55:30;14.85;;;9.48;;
52126;SDS011;38120;53.176;6.614;2022-08-19T10:58:15;10.65;;;8.50;;
52126;SDS011;38120;53.176;6.614;2022-08-19T11:00:42;11.00;;;8.32;;
52126;SDS011;38120;53.176;6.614;2022-08-19T11:03:15;10.68;;;9.02;;
52126;SDS011;38120;53.176;6.614;2022-08-19T11:08:07;13.77;;;8.70;;
52126;SDS011;38120;53.176;6.614;2022-08-19T11:10:36;10.25;;;8.65;;
52126;SDS011;38120;53.176;6.614;2022-08-19T11:13:06;10.15;;;7.30;;
52126;SDS011;38120;53.176;6.614;2022-08-19T11:17:58;13.73;;;9.55;;
52126;SDS011;38120;53.176;6.614;2022-08-19T11:22:51;14.25;;;9.38;;
52126;SDS011;38120;53.176;6.614;2022-08-19T11:25:18;13.70;;;11.07;;
52126;SDS011;38120;53.176;6.614;2022-08-19T11:27:47;14.23;;;12.23;;
52126;SDS011;38120;53.176;6.614;2022-08-19T11:30:16;13.85;;;9.60;;
52126;SDS011;38120;53.176;6.614;2022-08-19T11:32:42;14.57;;;9.63;;
52126;SDS011;38120;53.176;6.614;2022-08-19T11:37:33;11.90;;;8.88;;
52126;SDS011;38120;53.176;6.614;2022-08-19T11:40:03;11.82;;;8.05;;
52126;SDS011;38120;53.176;6.614;2022-08-19T11:42:30;9.25;;;7.13;;
52126;SDS011;38120;53.176;6.614;2022-08-19T11:45:18;11.45;;;7.97;;
52126;SDS011;38120;53.176;6.614;2022-08-19T11:50:11;10.18;;;7.40;;
52126;SDS011;38120;53.176;6.614;2022-08-19T11:55:02;12.95;;;9.98;;
52126;SDS011;38120;53.176;6.614;2022-08-19T11:57:28;11.27;;;10.07;;
52126;SDS011;38120;53.176;6.614;2022-08-19T12:02:19;14.95;;;10.48;;
52126;SDS011;38120;53.176;6.614;2022-08-19T12:04:46;12.75;;;9.27;;
52126;SDS011;38120;53.176;6.614;2022-08-19T12:07:12;14.20;;;10.15;;
52126;SDS011;38120;53.176;6.614;2022-08-19T12:12:04;11.57;;;9.82;;
52126;SDS011;38120;53.176;6.614;2022-08-19T12:14:33;9.60;;;8.50;;
52126;SDS011;38120;53.176;6.614;2022-08-19T12:17:00;12.80;;;9.50;;
52126;SDS011;38120;53.176;6.614;2022-08-19T12:19:27;9.07;;;8.00;;
52126;SDS011;38120;53.176;6.614;2022-08-19T12:21:54;13.80;;;8.75;;
52126;SDS011;38120;53.176;6.614;2022-08-19T12:24:25;13.88;;;10.23;;
52126;SDS011;38120;53.176;6.614;2022-08-19T12:29:18;11.20;;;9.70;;
52126;SDS011;38120;53.176;6.614;2022-08-19T12:34:09;16.75;;;11.98;;
52126;SDS011;38120;53.176;6.614;2022-08-19T12:39:00;12.68;;;10.35;;
52126;SDS011;38120;53.176;6.614;2022-08-19T12:43:51;12.35;;;9.65;;
52126;SDS011;38120;53.176;6.614;2022-08-19T12:48:43;10.80;;;8.55;;
52126;SDS011;38120;53.176;6.614;2022-08-19T12:51:12;10.60;;;8.40;;
52126;SDS011;38120;53.176;6.614;2022-08-19T12:53:40;11.73;;;9.60;;
52126;SDS011;38120;53.176;6.614;2022-08-19T12:56:07;14.32;;;9.00;;
52126;SDS011;38120;53.176;6.614;2022-08-19T12:58:34;9.85;;;8.52;;
52126;SDS011;38120;53.176;6.614;2022-08-19T13:01:06;10.60;;;8.48;;
52126;SDS011;38120;53.176;6.614;2022-08-19T13:03:39;15.02;;;9.48;;
52126;SDS011;38120;53.176;6.614;2022-08-19T13:06:05;16.75;;;10.82;;
52126;SDS011;38120;53.176;6.614;2022-08-19T13:08:31;12.05;;;9.55;;
52126;SDS011;38120;53.176;6.614;2022-08-19T13:13:31;10.43;;;7.72;;
52126;SDS011;38120;53.176;6.614;2022-08-19T13:18:27;11.55;;;8.63;;
52126;SDS011;38120;53.176;6.614;2022-08-19T13:23:18;11.55;;;8.30;;
52126;SDS011;38120;53.176;6.614;2022-08-19T13:28:09;12.77;;;8.75;;
52126;SDS011;38120;53.176;6.614;2022-08-19T13:33:19;12.23;;;9.30;;
52126;SDS011;38120;53.176;6.614;2022-08-19T13:38:16;15.70;;;10.15;;
52126;SDS011;38120;53.176;6.614;2022-08-19T13:40:45;16.02;;;11.40;;
52126;SDS011;38120;53.176;6.614;2022-08-19T13:45:37;13.68;;;11.27;;
52126;SDS011;38120;53.176;6.614;2022-08-19T13:50:33;16.15;;;11.55;;
52126;SDS011;38120;53.176;6.614;2022-08-19T13:53:03;13.23;;;9.73;;
52126;SDS011;38120;53.176;6.614;2022-08-19T13:57:56;10.95;;;7.47;;
52126;SDS011;38120;53.176;6.614;2022-08-19T14:00:24;9.60;;;6.45;;
52126;SDS011;38120;53.176;6.614;2022-08-19T14:02:53;11.18;;;6.45;;
52126;SDS011;38120;53.176;6.614;2022-08-19T14:05:20;10.77;;;6.43;;
52126;SDS011;38120;53.176;6.614;2022-08-19T14:07:47;9.90;;;7.47;;
52126;SDS011;38120;53.176;6.614;2022-08-19T14:15:06;9.35;;;6.30;;
52126;SDS011;38120;53.176;6.614;2022-08-19T14:17:33;11.27;;;7.90;;
52126;SDS011;38120;53.176;6.614;2022-08-19T14:20:00;11.52;;;7.05;;
52126;SDS011;38120;53.176;6.614;2022-08-19T14:22:37;10.32;;;6.55;;
52126;SDS011;38120;53.176;6.614;2022-08-19T14:25:06;9.63;;;7.05;;
52126;SDS011;38120;53.176;6.614;2022-08-19T14:27:34;9.70;;;7.28;;
52126;SDS011;38120;53.176;6.614;2022-08-19T14:30:01;13.70;;;8.00;;
52126;SDS011;38120;53.176;6.614;2022-08-19T14:32:28;13.52;;;8.52;;
52126;SDS011;38120;53.176;6.614;2022-08-19T14:37:20;12.20;;;9.15;;
52126;SDS011;38120;53.176;6.614;2022-08-19T14:39:47;16.17;;;11.23;;
52126;SDS011;38120;53.176;6.614;2022-08-19T14:44:41;15.35;;;9.70;;
52126;SDS011;38120;53.176;6.614;2022-08-19T14:47:07;15.30;;;9.32;;
52126;SDS011;38120;53.176;6.614;2022-08-19T14:51:59;12.57;;;9.23;;
52126;SDS011;38120;53.176;6.614;2022-08-19T14:56:51;13.32;;;9.38;;
52126;SDS011;38120;53.176;6.614;2022-08-19T14:59:17;16.00;;;9.82;;
52126;SDS011;38120;53.176;6.614;2022-08-19T15:01:43;15.52;;;11.18;;
52126;SDS011;38120;53.176;6.614;2022-08-19T15:06:34;12.38;;;9.15;;
52126;SDS011;38120;53.176;6.614;2022-08-19T15:11:27;12.98;;;9.43;;
52126;SDS011;38120;53.176;6.614;2022-08-19T15:13:54;11.43;;;8.63;;
52126;SDS011;38120;53.176;6.614;2022-08-19T15:16:21;16.48;;;12.73;;
52126;SDS011;38120;53.176;6.614;2022-08-19T15:18:49;15.13;;;10.95;;
52126;SDS011;38120;53.176;6.614;2022-08-19T15:21:16;14.30;;;9.85;;
52126;SDS011;38120;53.176;6.614;2022-08-19T15:23:43;16.40;;;9.38;;
52126;SDS011;38120;53.176;6.614;2022-08-19T15:26:10;11.05;;;7.90;;
52126;SDS011;38120;53.176;6.614;2022-08-19T15:28:36;11.85;;;7.70;;
52126;SDS011;38120;53.176;6.614;2022-08-19T15:31:03;11.38;;;6.88;;
52126;SDS011;38120;53.176;6.614;2022-08-19T15:33:32;10.98;;;6.30;;
52126;SDS011;38120;53.176;6.614;2022-08-19T15:36:01;12.48;;;8.85;;
52126;SDS011;38120;53.176;6.614;2022-08-19T15:38:29;10.57;;;8.32;;
52126;SDS011;38120;53.176;6.614;2022-08-19T15:43:41;8.48;;;5.28;;
52126;SDS011;38120;53.176;6.614;2022-08-19T15:46:07;7.40;;;5.45;;
52126;SDS011;38120;53.176;6.614;2022-08-19T15:50:58;9.50;;;5.10;;
52126;SDS011;38120;53.176;6.614;2022-08-19T15:55:50;10.85;;;5.68;;
52126;SDS011;38120;53.176;6.614;2022-08-19T16:01:02;11.82;;;7.10;;
52126;SDS011;38120;53.176;6.614;2022-08-19T16:03:48;10.13;;;7.30;;
52126;SDS011;38120;53.176;6.614;2022-08-19T16:06:33;12.70;;;7.22;;
52126;SDS011;38120;53.176;6.614;2022-08-19T16:09:01;10.15;;;7.38;;
52126;SDS011;38120;53.176;6.614;2022-08-19T16:11:28;11.43;;;6.68;;
52126;SDS011;38120;53.176;6.614;2022-08-19T16:13:56;10.18;;;7.47;;
52126;SDS011;38120;53.176;6.614;2022-08-19T16:16:24;13.07;;;9.10;;
52126;SDS011;38120;53.176;6.614;2022-08-19T16:18:53;11.70;;;7.55;;
52126;SDS011;38120;53.176;6.614;2022-08-19T16:21:21;9.90;;;7.18;;
52126;SDS011;38120;53.176;6.614;2022-08-19T16:23:48;14.02;;;7.47;;
52126;SDS011;38120;53.176;6.614;2022-08-19T16:26:15;13.93;;;8.88;;
52126;SDS011;38120;53.176;6.614;2022-08-19T16:28:42;12.93;;;8.02;;
52126;SDS011;38120;53.176;6.614;2022-08-19T16:31:08;11.40;;;8.02;;